Time;durP1;ratioP1;P1;durP2;ratioP2;P2;SDS_P1;SDS_P2;PMS_P1;PMS_P2;Temp;Humidity;BMP_temperature;BMP_pressure;BME280_temperature;BME280_humidity;BME280_pressure;Samples;Min_cycle;Max_cycle;Signal;HPM_P1;HPM_P2
2021/12/11 00:00:57;;;;;;;0.40;0.20;;;4.30;99.90;;;;;;5092556;28;20384;-71
2021/12/11 00:03:30;;;;;;;0.40;0.20;;;4.30;99.90;;;;;;5092608;28;20436;-70
2021/12/11 00:06:27;;;;;;;0.60;0.60;;;4.20;99.90;;;;;;5091993;28;20377;-71
2021/12/11 00:08:58;;;;;;;0.40;0.20;;;4.30;99.90;;;;;;5091322;28;20432;-72
2021/12/11 00:11:30;;;;;;;0.40;0.20;;;4.30;99.90;;;;;;5092678;28;20400;-71
2021/12/11 00:13:59;;;;;;;0.40;0.20;;;4.30;99.90;;;;;;5092061;28;20378;-72
2021/12/11 00:16:28;;;;;;;0.40;0.20;;;4.30;99.90;;;;;;5092320;28;20812;-71
2021/12/11 00:19:02;;;;;;;0.40;0.30;;;4.30;99.90;;;;;;5091971;28;20378;-73
2021/12/11 00:21:29;;;;;;;0.40;0.20;;;4.20;99.90;;;;;;5092649;28;20447;-71
2021/12/11 00:24:09;;;;;;;0.40;0.20;;;4.20;99.90;;;;;;5073758;28;20375;-72
2021/12/11 00:26:39;;;;;;;0.40;0.20;;;4.30;99.90;;;;;;5091974;28;20413;-70
2021/12/11 00:29:07;;;;;;;0.40;0.20;;;4.20;99.90;;;;;;5091362;28;20429;-71
2021/12/11 00:31:33;;;;;;;0.40;0.20;;;4.20;99.90;;;;;;5091710;28;20489;-71
2021/12/11 00:34:00;;;;;;;0.40;0.20;;;4.20;99.90;;;;;;5106378;28;20384;-71
2021/12/11 00:36:32;;;;;;;0.40;0.30;;;4.20;99.90;;;;;;5111732;28;20434;-72
2021/12/11 00:39:13;;;;;;;0.40;0.20;;;4.20;99.90;;;;;;5094261;28;20806;-71
2021/12/11 00:41:40;;;;;;;0.40;0.20;;;4.30;99.90;;;;;;5112425;28;20376;-71
2021/12/11 00:44:06;;;;;;;0.40;0.20;;;4.20;99.90;;;;;;5112371;28;20467;-71
2021/12/11 00:46:33;;;;;;;2.10;1.00;;;4.20;99.90;;;;;;5111640;28;20369;-71
2021/12/11 00:49:13;;;;;;;0.40;0.20;;;4.10;99.90;;;;;;5112168;28;20467;-73
2021/12/11 00:51:40;;;;;;;0.40;0.20;;;4.20;99.90;;;;;;5111880;28;20425;-71
2021/12/11 00:54:06;;;;;;;0.40;0.20;;;4.20;99.90;;;;;;5112110;28;20373;-71
2021/12/11 00:56:38;;;;;;;0.40;0.20;;;4.30;99.90;;;;;;5093208;28;20381;-72
2021/12/11 00:59:09;;;;;;;0.40;0.20;;;4.20;99.90;;;;;;5112085;28;20459;-72
2021/12/11 01:01:59;;;;;;;0.40;0.20;;;4.20;99.90;;;;;;5111383;28;20441;-71
2021/12/11 01:04:31;;;;;;;0.40;0.20;;;4.20;99.90;;;;;;5093213;28;20385;-72
2021/12/11 01:07:02;;;;;;;0.40;0.20;;;4.20;99.90;;;;;;5111836;28;20438;-72
2021/12/11 01:09:40;;;;;;;0.40;0.20;;;4.20;99.90;;;;;;5110985;28;20395;-72
2021/12/11 01:12:40;;;;;;;0.40;0.20;;;4.20;99.90;;;;;;5111482;28;20853;-71
2021/12/11 01:15:17;;;;;;;0.60;0.60;;;4.20;99.90;;;;;;5093181;28;20416;-71
2021/12/11 01:18:03;;;;;;;0.40;0.20;;;4.20;99.90;;;;;;5111098;28;20402;-72
2021/12/11 01:20:50;;;;;;;0.40;0.20;;;4.20;99.90;;;;;;5093327;28;20738;-71
2021/12/11 01:23:55;;;;;;;0.40;0.20;;;4.20;99.90;;;;;;5111532;28;20866;-71
2021/12/11 01:26:21;;;;;;;0.40;0.20;;;4.20;99.90;;;;;;5111046;28;20417;-72
2021/12/11 01:28:48;;;;;;;0.40;0.30;;;4.20;99.90;;;;;;5110792;28;20457;-71
2021/12/11 01:31:16;;;;;;;0.40;0.20;;;4.20;99.90;;;;;;5111516;28;20427;-71
2021/12/11 01:33:43;;;;;;;0.40;0.20;;;4.30;99.90;;;;;;5098550;28;20394;-71
2021/12/11 01:36:09;;;;;;;0.60;0.50;;;4.20;99.90;;;;;;5090414;28;20366;-71
2021/12/11 01:38:37;;;;;;;0.40;0.20;;;4.30;99.90;;;;;;5072950;28;20428;-71
2021/12/11 01:41:12;;;;;;;0.40;0.20;;;4.30;99.90;;;;;;5090439;28;20414;-72
2021/12/11 01:43:41;;;;;;;0.40;0.20;;;4.20;99.90;;;;;;5091118;28;20431;-71
2021/12/11 01:46:08;;;;;;;0.40;0.20;;;4.20;99.90;;;;;;5090378;28;20375;-71
2021/12/11 01:48:40;;;;;;;0.40;0.20;;;4.30;99.90;;;;;;5090945;28;20402;-70
2021/12/11 01:51:14;;;;;;;0.40;0.20;;;4.20;99.90;;;;;;5072383;28;20402;-70
2021/12/11 01:53:45;;;;;;;0.40;0.20;;;4.30;99.90;;;;;;5091380;28;20386;-70
2021/12/11 01:56:17;;;;;;;0.40;0.20;;;4.30;99.90;;;;;;5090460;28;20397;-70
2021/12/11 01:58:55;;;;;;;0.40;0.20;;;4.30;99.90;;;;;;5090979;28;20492;-71
2021/12/11 02:01:32;;;;;;;0.40;0.20;;;4.20;99.90;;;;;;5091178;28;20713;-70
2021/12/11 02:04:00;;;;;;;0.40;0.20;;;4.30;99.90;;;;;;5090395;28;20386;-71
2021/12/11 02:06:36;;;;;;;0.40;0.20;;;4.30;99.90;;;;;;5090871;28;20382;-71
2021/12/11 02:09:22;;;;;;;0.40;0.20;;;4.30;99.90;;;;;;5090144;28;20401;-72
2021/12/11 02:12:04;;;;;;;0.40;0.20;;;4.30;99.90;;;;;;5072628;28;20401;-70
2021/12/11 02:14:36;;;;;;;0.40;0.20;;;4.20;99.90;;;;;;5090875;28;20469;-71
2021/12/11 02:17:03;;;;;;;0.40;0.20;;;4.30;99.90;;;;;;5090782;28;20379;-71
2021/12/11 02:19:33;;;;;;;0.40;0.30;;;4.20;99.90;;;;;;5090848;28;20838;-71
2021/12/11 02:22:01;;;;;;;0.40;0.20;;;4.20;99.90;;;;;;5090555;28;20380;-71
2021/12/11 02:24:33;;;;;;;0.90;0.80;;;4.20;99.90;;;;;;5071626;28;20659;-71
2021/12/11 02:27:00;;;;;;;0.40;0.20;;;4.20;99.90;;;;;;5052927;28;20945;-70
2021/12/11 02:29:35;;;;;;;0.40;0.30;;;4.20;99.90;;;;;;5069919;28;20376;-71
2021/12/11 02:32:27;;;;;;;0.40;0.20;;;4.20;99.90;;;;;;5070343;28;20412;-70
2021/12/11 02:35:07;;;;;;;0.40;0.20;;;4.20;99.90;;;;;;5070385;28;20711;-71
2021/12/11 02:37:40;;;;;;;0.40;0.20;;;4.20;99.90;;;;;;5051671;28;20391;-71
2021/12/11 02:40:19;;;;;;;0.40;0.20;;;4.20;99.90;;;;;;5070378;28;20466;-71
2021/12/11 02:43:09;;;;;;;0.40;0.20;;;4.20;99.90;;;;;;5070345;28;20474;-70
2021/12/11 02:45:55;;;;;;;0.40;0.20;;;4.20;99.90;;;;;;5069651;28;20466;-70
2021/12/11 02:48:43;;;;;;;0.40;0.20;;;4.20;99.90;;;;;;5072186;28;20770;-71
2021/12/11 02:51:14;;;;;;;0.40;0.25;;;4.20;99.90;;;;;;5055869;28;20872;-71
2021/12/11 02:53:53;;;;;;;0.40;0.30;;;4.10;99.90;;;;;;5055293;28;20400;-71
2021/12/11 02:56:48;;;;;;;0.40;0.20;;;4.20;99.90;;;;;;5073304;28;20479;-70
2021/12/11 02:59:18;;;;;;;0.40;0.20;;;4.10;99.90;;;;;;5072473;28;20403;-71
2021/12/11 03:01:49;;;;;;;0.40;0.20;;;4.40;99.90;;;;;;5072976;28;20384;-71
2021/12/11 03:04:26;;;;;;;0.40;0.20;;;4.20;99.90;;;;;;5073750;28;20399;-70
2021/12/11 03:06:54;;;;;;;0.40;0.20;;;4.30;99.90;;;;;;5072932;28;20412;-70
2021/12/11 03:09:27;;;;;;;0.40;0.20;;;4.20;99.90;;;;;;5055339;28;20502;-70
2021/12/11 03:11:55;;;;;;;0.40;0.25;;;4.20;99.90;;;;;;5072745;28;20380;-70
2021/12/11 03:14:22;;;;;;;0.40;0.20;;;4.20;99.90;;;;;;5055404;28;20384;-71
2021/12/11 03:16:50;;;;;;;0.40;0.20;;;4.20;99.90;;;;;;5072740;28;20434;-71
2021/12/11 03:19:20;;;;;;;0.40;0.20;;;4.20;99.90;;;;;;5055290;28;20388;-70
2021/12/11 03:21:47;;;;;;;0.40;0.20;;;4.20;99.90;;;;;;5055062;28;20889;-71
2021/12/11 03:24:15;;;;;;;0.40;0.20;;;4.20;99.90;;;;;;5072868;28;20891;-71
2021/12/11 03:26:42;;;;;;;0.40;0.20;;;4.10;99.90;;;;;;5089629;28;20806;-71
2021/12/11 03:29:08;;;;;;;0.40;0.20;;;4.20;99.90;;;;;;5074552;28;20408;-72
2021/12/11 03:31:38;;;;;;;0.40;0.30;;;4.20;99.90;;;;;;5075054;28;20812;-71
2021/12/11 03:34:07;;;;;;;0.40;0.20;;;4.10;99.90;;;;;;5107741;28;20392;-71
2021/12/11 03:36:33;;;;;;;0.47;0.35;;;4.00;99.90;;;;;;5113450;28;20741;-71
2021/12/11 03:39:25;;;;;;;0.40;0.20;;;4.10;99.90;;;;;;5094794;28;20862;-71
2021/12/11 03:41:55;;;;;;;0.40;0.20;;;4.10;99.90;;;;;;5112651;28;20396;-72
2021/12/11 03:44:22;;;;;;;0.40;0.20;;;4.00;99.90;;;;;;5112874;28;20404;-71
2021/12/11 03:46:51;;;;;;;0.40;0.20;;;4.00;99.90;;;;;;5113462;28;20415;-71
2021/12/11 03:49:19;;;;;;;0.40;0.20;;;4.00;99.90;;;;;;5112761;28;20432;-70
2021/12/11 03:51:49;;;;;;;0.40;0.30;;;4.00;99.90;;;;;;5113328;28;20380;-71
2021/12/11 03:54:23;;;;;;;0.40;0.30;;;4.00;99.90;;;;;;5112721;28;20385;-71
2021/12/11 03:56:49;;;;;;;0.40;0.20;;;4.00;99.90;;;;;;5094259;28;20451;-71
2021/12/11 03:59:15;;;;;;;0.40;0.20;;;3.90;99.90;;;;;;5111937;28;20368;-71
2021/12/11 04:01:45;;;;;;;0.40;0.30;;;3.90;99.90;;;;;;5113169;28;20380;-72
2021/12/11 04:04:19;;;;;;;0.80;0.60;;;3.90;99.90;;;;;;5094743;28;20384;-72
2021/12/11 04:06:46;;;;;;;0.40;0.20;;;3.80;99.90;;;;;;5112851;28;20383;-72
2021/12/11 04:09:13;;;;;;;0.60;0.50;;;3.80;99.90;;;;;;5112846;28;20412;-72
2021/12/11 04:11:40;;;;;;;0.40;0.20;;;3.90;99.90;;;;;;5112374;28;20648;-71
2021/12/11 04:14:10;;;;;;;0.40;0.20;;;3.80;99.90;;;;;;5112856;28;20376;-71
2021/12/11 04:16:36;;;;;;;0.40;0.20;;;3.70;99.90;;;;;;5093978;28;20396;-71
2021/12/11 04:19:04;;;;;;;0.40;0.20;;;3.70;99.90;;;;;;5094445;28;20487;-72
2021/12/11 04:21:29;;;;;;;0.40;0.20;;;3.70;99.90;;;;;;5093838;28;20384;-72
2021/12/11 04:23:56;;;;;;;0.40;0.20;;;3.70;99.90;;;;;;5094197;28;20750;-71
2021/12/11 04:26:21;;;;;;;0.40;0.20;;;3.70;99.90;;;;;;5112342;28;20722;-71
2021/12/11 04:28:47;;;;;;;0.40;0.20;;;3.70;99.90;;;;;;5111836;28;20408;-71
2021/12/11 04:31:21;;;;;;;0.40;0.20;;;3.70;99.90;;;;;;5112642;28;20915;-72
2021/12/11 04:33:50;;;;;;;0.40;0.20;;;3.60;99.90;;;;;;5098874;28;20378;-73
2021/12/11 04:36:19;;;;;;;0.40;0.20;;;3.60;99.90;;;;;;5074141;28;20389;-71
2021/12/11 04:38:46;;;;;;;0.40;0.40;;;3.50;99.90;;;;;;5073422;28;21001;-72
2021/12/11 04:41:18;;;;;;;0.45;0.43;;;3.50;99.90;;;;;;5092215;28;20883;-74
2021/12/11 04:43:46;;;;;;;0.40;0.30;;;3.50;99.90;;;;;;5073486;28;20792;-73
2021/12/11 04:46:12;;;;;;;0.40;0.20;;;3.50;99.90;;;;;;5092167;28;20374;-72
2021/12/11 04:54:20;;;;;;;0.40;0.30;;;3.50;99.90;;;;;;5091268;28;20420;-73
2021/12/11 04:57:06;;;;;;;0.40;0.20;;;3.40;99.90;;;;;;5073773;28;20387;-73
2021/12/11 05:06:18;;;;;;;0.40;0.20;;;3.40;99.90;;;;;;5089686;28;20789;-74
2021/12/11 05:10:49;;;;;;;0.40;0.20;;;3.30;99.90;;;;;;5091042;28;20393;-73
2021/12/11 05:13:16;;;;;;;0.40;0.20;;;3.40;99.90;;;;;;5091037;28;20413;-73
2021/12/11 05:15:45;;;;;;;0.63;0.57;;;3.50;99.90;;;;;;5091386;28;20735;-74
2021/12/11 05:18:16;;;;;;;0.60;0.60;;;3.20;99.90;;;;;;5072613;28;20954;-73
2021/12/11 05:20:45;;;;;;;0.40;0.20;;;3.30;99.90;;;;;;5091714;28;20415;-73
2021/12/11 05:23:11;;;;;;;0.40;0.20;;;3.30;99.90;;;;;;5090892;28;20400;-73
2021/12/11 05:25:37;;;;;;;0.40;0.20;;;3.40;99.90;;;;;;5090969;28;20459;-73
2021/12/11 05:28:03;;;;;;;0.40;0.20;;;3.40;99.90;;;;;;5091443;28;20406;-73
2021/12/11 05:30:37;;;;;;;0.40;0.20;;;3.30;99.90;;;;;;5090663;28;20386;-73
2021/12/11 05:33:03;;;;;;;0.40;0.30;;;3.40;99.90;;;;;;5091325;28;20402;-73
2021/12/11 05:35:32;;;;;;;0.40;0.20;;;3.30;99.90;;;;;;5072653;28;20389;-73
2021/12/11 05:37:59;;;;;;;0.40;0.30;;;3.10;99.90;;;;;;5073024;28;20808;-73
2021/12/11 05:40:26;;;;;;;0.50;0.50;;;3.30;99.90;;;;;;5090771;28;20461;-73
2021/12/11 05:42:52;;;;;;;0.40;0.20;;;3.30;99.90;;;;;;5091415;28;20370;-73
2021/12/11 05:45:18;;;;;;;0.40;0.20;;;3.40;99.90;;;;;;5073237;28;20382;-73
2021/12/11 05:47:45;;;;;;;0.40;0.20;;;3.30;99.90;;;;;;5090606;28;20405;-74
2021/12/11 05:50:17;;;;;;;0.40;0.20;;;3.30;99.90;;;;;;5090904;28;20709;-73
2021/12/11 05:52:44;;;;;;;0.40;0.30;;;3.30;99.90;;;;;;5090656;28;20402;-73
2021/12/11 05:55:15;;;;;;;0.40;0.30;;;3.30;99.90;;;;;;5072730;28;20489;-73
2021/12/11 05:57:41;;;;;;;0.40;0.20;;;3.30;99.90;;;;;;5072388;28;20401;-74
2021/12/11 06:00:11;;;;;;;0.40;0.20;;;3.30;99.90;;;;;;5090758;28;20882;-73
2021/12/11 06:02:36;;;;;;;0.40;0.20;;;3.20;99.90;;;;;;5090186;28;20774;-74
2021/12/11 06:05:04;;;;;;;0.40;0.20;;;3.20;99.90;;;;;;5056124;28;20382;-74
2021/12/11 06:07:30;;;;;;;0.40;0.20;;;3.20;99.90;;;;;;5091344;28;20414;-75
2021/12/11 06:10:06;;;;;;;0.40;0.30;;;4.00;99.90;;;;;;5071842;28;20622;-75
2021/12/11 06:12:32;;;;;;;0.40;0.20;;;3.10;99.90;;;;;;5072913;28;20394;-74
2021/12/11 06:14:58;;;;;;;0.40;0.30;;;4.60;99.90;;;;;;5072129;28;20382;-75
2021/12/11 06:17:28;;;;;;;0.40;0.20;;;3.10;99.90;;;;;;5090727;28;20898;-74
2021/12/11 06:19:56;;;;;;;0.40;0.20;;;3.10;99.90;;;;;;5090363;28;20398;-75
2021/12/11 06:22:29;;;;;;;0.40;0.20;;;3.20;99.90;;;;;;5091775;28;20397;-73
2021/12/11 06:24:57;;;;;;;0.40;0.20;;;3.20;99.90;;;;;;5094230;28;20413;-74
2021/12/11 06:27:24;;;;;;;0.40;0.20;;;3.20;99.90;;;;;;5094856;28;20370;-74
2021/12/11 06:29:50;;;;;;;0.40;0.30;;;3.20;99.90;;;;;;5094801;28;20489;-74
2021/12/11 06:32:16;;;;;;;0.40;0.30;;;3.20;99.90;;;;;;5094751;28;20374;-74
2021/12/11 06:34:43;;;;;;;0.40;0.30;;;3.20;99.90;;;;;;5094609;28;20398;-74
2021/12/11 06:37:11;;;;;;;0.40;0.20;;;3.20;99.90;;;;;;5094112;28;20378;-74
2021/12/11 06:39:37;;;;;;;0.40;0.20;;;3.20;99.90;;;;;;5094692;28;20758;-74
2021/12/11 06:42:06;;;;;;;0.40;0.28;;;3.20;99.90;;;;;;5094086;28;20704;-74
2021/12/11 06:44:33;;;;;;;0.40;0.20;;;3.30;99.90;;;;;;5094423;28;20441;-74
2021/12/11 06:47:01;;;;;;;0.40;0.30;;;3.40;99.90;;;;;;5094246;28;20457;-73
2021/12/11 06:49:30;;;;;;;0.40;0.30;;;3.30;99.90;;;;;;5093915;28;20694;-73
2021/12/11 06:51:56;;;;;;;0.40;0.20;;;3.30;99.90;;;;;;5094408;28;20389;-74
2021/12/11 06:54:22;;;;;;;0.40;0.20;;;3.40;99.90;;;;;;5093679;28;20394;-74
2021/12/11 06:56:48;;;;;;;0.40;0.30;;;3.30;99.90;;;;;;5094226;28;20386;-73
2021/12/11 06:59:15;;;;;;;0.40;0.30;;;3.50;99.90;;;;;;5093813;28;20455;-74
2021/12/11 07:01:41;;;;;;;0.40;0.20;;;3.30;99.90;;;;;;5094178;28;20415;-74
2021/12/11 07:04:09;;;;;;;0.40;0.22;;;3.40;99.90;;;;;;5075822;28;20382;-73
2021/12/11 07:06:37;;;;;;;0.40;0.20;;;3.40;99.90;;;;;;5093631;28;20374;-73
2021/12/11 07:09:05;;;;;;;0.40;0.20;;;3.40;99.90;;;;;;5093617;28;20430;-73
2021/12/11 07:11:31;;;;;;;0.40;0.20;;;3.40;99.90;;;;;;5093186;28;20467;-73
2021/12/11 07:13:57;;;;;;;0.70;0.50;;;3.40;99.90;;;;;;5093931;28;20381;-74
2021/12/11 07:16:24;;;;;;;0.40;0.20;;;3.50;99.90;;;;;;5093604;28;20374;-75
2021/12/11 07:18:50;;;;;;;0.40;0.20;;;3.40;99.90;;;;;;5093794;28;20546;-73
2021/12/11 07:21:16;;;;;;;0.50;0.50;;;3.40;99.90;;;;;;5093798;28;20389;-74
2021/12/11 07:23:47;;;;;;;0.40;0.20;;;3.40;99.90;;;;;;5093231;28;20379;-75
2021/12/11 07:26:22;;;;;;;0.40;0.20;;;3.40;99.90;;;;;;5093843;28;20890;-74
2021/12/11 07:28:53;;;;;;;0.40;0.30;;;3.30;99.90;;;;;;5093180;28;20409;-74
2021/12/11 07:31:21;;;;;;;0.40;0.25;;;3.30;99.90;;;;;;5093466;28;20390;-74
2021/12/11 07:33:50;;;;;;;0.40;0.20;;;3.30;99.90;;;;;;5104513;28;20377;-74
2021/12/11 07:36:16;;;;;;;0.40;0.20;;;3.30;99.90;;;;;;5095500;28;20372;-74
2021/12/11 07:38:42;;;;;;;0.40;0.20;;;3.30;99.90;;;;;;5113371;28;20384;-74
2021/12/11 07:41:10;;;;;;;0.40;0.20;;;3.20;99.90;;;;;;5095543;28;20381;-73
2021/12/11 07:43:37;;;;;;;0.40;0.20;;;3.20;99.90;;;;;;5114101;28;20778;-73
2021/12/11 07:46:04;;;;;;;0.40;0.28;;;3.30;99.90;;;;;;5113121;28;20637;-73
2021/12/11 07:48:30;;;;;;;0.40;0.30;;;3.20;99.90;;;;;;5113379;28;20424;-74
2021/12/11 07:50:56;;;;;;;0.40;0.40;;;3.10;99.90;;;;;;5113041;28;20389;-74
2021/12/11 07:53:22;;;;;;;0.40;0.30;;;3.20;99.90;;;;;;5113512;28;20377;-74
2021/12/11 07:55:49;;;;;;;0.40;0.20;;;3.20;99.90;;;;;;5113297;28;20720;-73
2021/12/11 07:58:15;;;;;;;0.40;0.20;;;3.20;99.90;;;;;;5095388;28;20463;-74
2021/12/11 08:00:44;;;;;;;0.40;0.20;;;3.20;99.90;;;;;;5113369;28;20395;-74
2021/12/11 08:03:12;;;;;;;0.40;0.20;;;3.20;99.90;;;;;;5112760;28;20391;-74
2021/12/11 08:05:39;;;;;;;0.40;0.30;;;3.20;99.90;;;;;;5113316;28;20380;-74
2021/12/11 08:08:06;;;;;;;0.40;0.20;;;3.30;99.90;;;;;;5094325;28;20932;-74
2021/12/11 08:10:34;;;;;;;0.40;0.30;;;3.20;99.90;;;;;;5094742;28;20933;-74
2021/12/11 08:13:01;;;;;;;0.40;0.20;;;3.20;99.90;;;;;;5112766;28;20846;-75
2021/12/11 08:15:28;;;;;;;0.40;0.20;;;3.30;99.90;;;;;;5094760;28;20384;-74
2021/12/11 08:17:54;;;;;;;0.40;0.20;;;3.30;99.90;;;;;;5112932;28;20376;-76
2021/12/11 08:20:24;;;;;;;0.40;0.20;;;3.30;99.90;;;;;;5076999;28;20380;-75
2021/12/11 08:22:52;;;;;;;0.70;0.70;;;3.50;99.90;;;;;;5096382;27;20453;-75
2021/12/11 08:25:20;;;;;;;0.40;0.20;;;3.30;99.90;;;;;;5131317;27;20482;-74
2021/12/11 08:27:46;;;;;;;0.60;0.60;;;3.30;99.90;;;;;;5115243;27;20414;-74
2021/12/11 08:30:12;;;;;;;0.40;0.30;;;3.30;99.90;;;;;;5114251;27;20863;-75
2021/12/11 08:32:38;;;;;;;0.40;0.20;;;3.80;99.90;;;;;;5130144;27;20432;-74
2021/12/11 08:35:07;;;;;;;0.40;0.20;;;3.40;99.90;;;;;;5094314;28;20735;-74
2021/12/11 08:37:33;;;;;;;0.70;0.70;;;3.60;99.90;;;;;;5112408;28;20838;-74
2021/12/11 08:39:59;;;;;;;0.40;0.20;;;3.50;99.90;;;;;;5112693;28;20454;-74
2021/12/11 08:42:26;;;;;;;0.40;0.20;;;3.60;99.90;;;;;;5095412;27;20390;-74
2021/12/11 08:45:03;;;;;;;0.40;0.30;;;3.50;99.90;;;;;;5100515;27;20702;-74
2021/12/11 08:47:29;;;;;;;0.40;0.20;;;3.60;99.90;;;;;;5128756;27;20378;-73
2021/12/11 08:49:55;;;;;;;0.40;0.20;;;3.50;99.90;;;;;;5132832;27;20469;-73
2021/12/11 08:52:23;;;;;;;0.70;0.50;;;3.50;99.90;;;;;;5132389;27;20966;-73
2021/12/11 08:54:50;;;;;;;0.40;0.20;;;3.50;99.90;;;;;;5128184;27;20783;-73
2021/12/11 08:57:19;;;;;;;0.40;0.30;;;3.50;99.90;;;;;;5115877;27;20383;-73
2021/12/11 08:59:50;;;;;;;0.40;0.20;;;3.60;99.90;;;;;;5106877;27;20845;-73
2021/12/11 09:02:33;;;;;;;0.40;0.20;;;3.70;99.90;;;;;;5088000;28;20427;-73
2021/12/11 09:05:22;;;;;;;0.40;0.20;;;3.70;99.90;;;;;;5085993;28;20445;-73
2021/12/11 09:08:24;;;;;;;0.40;0.20;;;3.60;99.90;;;;;;5104400;27;20513;-73
2021/12/11 09:11:02;;;;;;;0.40;0.30;;;3.70;99.90;;;;;;5091897;27;20507;-73
2021/12/11 09:13:45;;;;;;;0.40;0.25;;;3.80;99.90;;;;;;5132245;27;20378;-72
2021/12/11 09:16:13;;;;;;;0.40;0.20;;;3.80;99.90;;;;;;5099148;27;20454;-72
2021/12/11 09:19:17;;;;;;;0.40;0.20;;;3.80;99.90;;;;;;5112309;27;20732;-73
2021/12/11 09:21:53;;;;;;;0.40;0.20;;;3.90;99.90;;;;;;5109574;27;20399;-73
2021/12/11 09:24:26;;;;;;;0.80;0.80;;;3.90;99.90;;;;;;5083062;27;20391;-73
2021/12/11 09:27:03;;;;;;;0.40;0.20;;;4.00;99.90;;;;;;5131534;27;20918;-73
2021/12/11 09:29:38;;;;;;;0.40;0.20;;;3.90;99.90;;;;;;5132134;27;20434;-72
2021/12/11 09:32:26;;;;;;;0.40;0.20;;;3.90;99.90;;;;;;5112939;27;20390;-72
2021/12/11 09:35:06;;;;;;;0.40;0.20;;;4.00;99.90;;;;;;5112297;27;20416;-73
2021/12/11 09:37:33;;;;;;;0.40;0.20;;;4.10;99.90;;;;;;5102699;27;20382;-71
2021/12/11 09:40:07;;;;;;;0.40;0.20;;;4.20;99.90;;;;;;5112505;27;20756;-71
2021/12/11 09:42:32;;;;;;;0.40;0.20;;;4.20;99.90;;;;;;5131951;27;20406;-72
2021/12/11 09:45:09;;;;;;;0.40;0.20;;;4.20;99.90;;;;;;5131245;27;20911;-72
2021/12/11 09:47:41;;;;;;;0.40;0.20;;;4.30;99.90;;;;;;5131222;27;20413;-71
2021/12/11 09:50:19;;;;;;;0.40;0.25;;;4.40;99.90;;;;;;5127755;27;20379;-72
2021/12/11 09:52:46;;;;;;;0.40;0.20;;;4.40;99.90;;;;;;5131838;28;20375;-73
2021/12/11 09:55:19;;;;;;;0.40;0.20;;;4.40;99.90;;;;;;5131496;28;20382;-71
2021/12/11 09:57:49;;;;;;;0.40;0.20;;;4.60;99.90;;;;;;5133498;27;20394;-72
2021/12/11 10:00:23;;;;;;;0.40;0.20;;;4.50;99.90;;;;;;5135505;27;20382;-73
2021/12/11 10:02:50;;;;;;;0.40;0.20;;;4.40;99.90;;;;;;5135845;27;20740;-73
2021/12/11 10:05:33;;;;;;;0.40;0.30;;;4.50;99.90;;;;;;5135620;27;20401;-73
2021/12/11 10:08:42;;;;;;;0.40;0.20;;;4.50;99.90;;;;;;5136101;27;20410;-72
2021/12/11 10:11:19;;;;;;;1.20;0.60;;;4.50;99.90;;;;;;5135069;27;20783;-73
2021/12/11 10:13:52;;;;;;;0.40;0.30;;;4.40;99.90;;;;;;5135400;27;20462;-73
2021/12/11 10:16:21;;;;;;;0.40;0.20;;;4.50;99.90;;;;;;5128540;27;20725;-73
2021/12/11 10:18:48;;;;;;;0.40;0.40;;;4.50;99.90;;;;;;5116604;27;20452;-73
2021/12/11 10:21:27;;;;;;;0.40;0.20;;;4.30;99.90;;;;;;5121026;27;20394;-73
2021/12/11 10:23:56;;;;;;;0.40;0.30;;;4.40;99.90;;;;;;5093866;28;20392;-73
2021/12/11 10:26:25;;;;;;;0.40;0.20;;;4.70;99.90;;;;;;5103555;27;20408;-74
2021/12/11 10:28:55;;;;;;;0.40;0.20;;;4.70;99.90;;;;;;5100656;27;20404;-73
2021/12/11 10:31:21;;;;;;;0.40;0.20;;;4.70;99.90;;;;;;5101765;27;20746;-72
2021/12/11 10:33:47;;;;;;;0.40;0.40;;;4.70;99.90;;;;;;5098369;27;20388;-72
2021/12/11 10:36:16;;;;;;;0.40;0.28;;;4.60;99.90;;;;;;5100722;28;20395;-71
2021/12/11 10:38:44;;;;;;;0.40;0.30;;;4.60;99.90;;;;;;5100463;27;20772;-71
2021/12/11 10:41:11;;;;;;;0.40;0.30;;;4.50;99.90;;;;;;5100762;28;20392;-72
2021/12/11 10:43:46;;;;;;;0.40;0.20;;;4.60;99.90;;;;;;5098619;27;20416;-73
2021/12/11 10:46:13;;;;;;;0.50;0.40;;;4.50;99.90;;;;;;5100683;27;20968;-70
2021/12/11 10:48:42;;;;;;;0.40;0.20;;;4.50;99.90;;;;;;5100391;28;20919;-73
2021/12/11 10:51:12;;;;;;;0.40;0.30;;;4.60;99.90;;;;;;5100803;28;20740;-71
2021/12/11 10:53:42;;;;;;;0.40;0.20;;;4.70;99.90;;;;;;5098929;28;20373;-72
2021/12/11 10:56:08;;;;;;;0.40;0.20;;;4.70;99.90;;;;;;5081590;28;20411;-72
2021/12/11 10:58:45;;;;;;;0.40;0.30;;;4.60;99.90;;;;;;5082168;28;20404;-72
2021/12/11 11:01:24;;;;;;;0.40;0.20;;;4.60;99.90;;;;;;5100785;28;20410;-72
2021/12/11 11:03:56;;;;;;;0.40;0.30;;;4.50;99.90;;;;;;5098067;28;20392;-72
2021/12/11 11:06:22;;;;;;;0.40;0.20;;;4.50;99.90;;;;;;5082515;28;20393;-73
2021/12/11 11:08:49;;;;;;;0.40;0.30;;;4.70;99.90;;;;;;5100603;28;20540;-72
2021/12/11 11:11:19;;;;;;;0.40;0.30;;;4.60;99.90;;;;;;5100233;28;20381;-72
2021/12/11 11:13:45;;;;;;;0.40;0.30;;;4.70;99.90;;;;;;5098731;28;20468;-72
2021/12/11 11:16:13;;;;;;;0.60;0.60;;;4.80;99.90;;;;;;5099625;28;20416;-71
2021/12/11 11:18:39;;;;;;;0.40;0.30;;;4.70;99.90;;;;;;5100287;28;20408;-72
2021/12/11 11:21:42;;;;;;;0.40;0.20;;;4.70;99.90;;;;;;5105201;27;20423;-72
2021/12/11 11:24:11;;;;;;;0.40;0.20;;;4.70;99.90;;;;;;5058598;27;21026;-70
2021/12/11 11:26:40;;;;;;;0.50;0.50;;;4.60;99.90;;;;;;5111308;27;20404;-71
2021/12/11 11:29:09;;;;;;;0.40;0.20;;;4.70;99.90;;;;;;5110951;27;20404;-71
2021/12/11 11:31:37;;;;;;;0.40;0.20;;;4.50;99.90;;;;;;5111413;27;20399;-71
2021/12/11 11:34:07;;;;;;;0.40;0.30;;;4.50;99.90;;;;;;5111164;27;20392;-71
2021/12/11 11:36:34;;;;;;;0.40;0.20;;;4.50;99.90;;;;;;5113651;27;20418;-71
2021/12/11 11:39:05;;;;;;;0.40;0.30;;;4.50;99.90;;;;;;5113425;27;20393;-71
2021/12/11 11:41:39;;;;;;;0.40;0.20;;;4.50;99.90;;;;;;5110761;27;20376;-71
2021/12/11 11:44:07;;;;;;;0.40;0.20;;;4.60;99.90;;;;;;5111824;27;20448;-71
2021/12/11 11:46:36;;;;;;;0.40;0.30;;;4.60;99.90;;;;;;5110861;27;20857;-71
2021/12/11 11:49:06;;;;;;;0.50;0.50;;;4.60;99.90;;;;;;5111870;27;20407;-71
2021/12/11 11:51:41;;;;;;;0.55;0.40;;;4.60;99.90;;;;;;5111704;27;20775;-72
2021/12/11 11:54:09;;;;;;;0.70;0.70;;;4.50;99.90;;;;;;5121472;27;20466;-72
2021/12/11 11:56:41;;;;;;;0.40;0.30;;;4.60;99.90;;;;;;5104383;27;20402;-70
2021/12/11 11:59:08;;;;;;;0.40;0.20;;;4.50;99.90;;;;;;5110170;27;20445;-70
2021/12/11 12:01:41;;;;;;;0.40;0.20;;;4.60;99.90;;;;;;5111847;27;20423;-70
2021/12/11 12:04:15;;;;;;;0.40;0.30;;;4.70;99.90;;;;;;5111393;28;20434;-70
2021/12/11 12:06:42;;;;;;;0.40;0.40;;;4.70;99.90;;;;;;5093297;28;20390;-70
2021/12/11 12:09:11;;;;;;;0.40;0.30;;;4.50;99.90;;;;;;5110940;27;20905;-71
2021/12/11 12:11:39;;;;;;;0.40;0.20;;;4.50;99.90;;;;;;5110045;27;20406;-71
2021/12/11 12:14:10;;;;;;;0.40;0.20;;;4.50;99.90;;;;;;5111317;27;20388;-70
2021/12/11 12:16:39;;;;;;;0.40;0.20;;;4.50;99.90;;;;;;5110832;28;20422;-71
2021/12/11 12:19:05;;;;;;;0.40;0.20;;;4.60;99.90;;;;;;5111230;27;20799;-71
2021/12/11 12:21:33;;;;;;;0.40;0.20;;;4.30;99.90;;;;;;5110193;27;20375;-72
2021/12/11 12:23:59;;;;;;;0.40;0.20;;;4.30;99.90;;;;;;5107941;28;20377;-71
2021/12/11 12:26:27;;;;;;;0.40;0.30;;;4.40;99.90;;;;;;5111064;28;20904;-70
2021/12/11 12:28:55;;;;;;;0.40;0.20;;;4.50;99.90;;;;;;5110437;28;20527;-70
2021/12/11 12:31:28;;;;;;;0.40;0.30;;;4.50;99.90;;;;;;5111521;27;20403;-70
2021/12/11 12:33:55;;;;;;;0.50;0.50;;;4.50;99.90;;;;;;5108028;27;20797;-71
2021/12/11 12:36:21;;;;;;;0.40;0.30;;;4.40;99.90;;;;;;5111229;27;20373;-70
2021/12/11 12:38:48;;;;;;;0.60;0.50;;;4.10;99.90;;;;;;5110435;28;20464;-71
2021/12/11 12:41:23;;;;;;;0.40;0.30;;;4.30;99.90;;;;;;5111547;27;20834;-71
2021/12/11 12:46:40;;;;;;;0.45;0.43;;;4.40;99.90;;;;;;5107197;27;20419;-72
2021/12/11 12:49:06;;;;;;;0.40;0.30;;;4.40;99.90;;;;;;5110720;27;20396;-71
2021/12/11 12:51:33;;;;;;;0.40;0.30;;;4.40;99.90;;;;;;5110732;27;20433;-71
2021/12/11 12:54:00;;;;;;;0.40;0.20;;;4.50;99.90;;;;;;5110414;28;20418;-71
2021/12/11 12:56:33;;;;;;;0.40;0.20;;;4.50;99.90;;;;;;5110465;28;20380;-71
2021/12/11 12:59:27;;;;;;;0.40;0.20;;;4.50;99.90;;;;;;5091978;28;20441;-72
2021/12/11 13:01:58;;;;;;;0.40;0.30;;;4.50;99.90;;;;;;5109514;27;20376;-74
2021/12/11 13:04:29;;;;;;;0.40;0.20;;;4.40;99.90;;;;;;5111699;28;20753;-73
2021/12/11 13:07:01;;;;;;;0.40;0.25;;;4.40;99.90;;;;;;5105199;27;20716;-72
2021/12/11 13:09:42;;;;;;;0.40;0.30;;;4.30;99.90;;;;;;5104045;27;20536;-74
2021/12/11 13:12:17;;;;;;;0.40;0.30;;;4.40;99.90;;;;;;5099873;28;20475;-72
2021/12/11 13:14:46;;;;;;;0.40;0.30;;;4.40;99.90;;;;;;5098778;28;20392;-72
2021/12/11 13:17:31;;;;;;;0.40;0.20;;;4.30;99.90;;;;;;5109583;27;20376;-72
2021/12/11 13:20:02;;;;;;;0.40;0.30;;;4.40;99.90;;;;;;5115582;27;20390;-72
2021/12/11 13:22:38;;;;;;;0.40;0.20;;;4.50;99.90;;;;;;5103111;27;20390;-73
2021/12/11 13:25:28;;;;;;;0.40;0.30;;;4.40;99.90;;;;;;5101524;28;20517;-73
2021/12/11 13:27:56;;;;;;;0.40;0.20;;;4.40;99.90;;;;;;5100534;28;20407;-72
2021/12/11 13:30:30;;;;;;;0.40;0.40;;;4.50;99.90;;;;;;5110386;28;20484;-71
2021/12/11 13:32:57;;;;;;;0.40;0.30;;;4.50;99.90;;;;;;5104976;28;20414;-72
2021/12/11 13:35:26;;;;;;;0.60;0.60;;;4.50;99.90;;;;;;5090056;28;20393;-72